Jenkins, Kentucky
Current Conditions -  °F | °C
As of 5:55 PM on Wednesday 22 Oct 2014 (Local Time) from KLNP Reporting Station
Drizzle Drizzle  
Wind Chill: 39°   Ceiling: 600
Heat Index: 43°   Visibility: 3mi
Dew Point: 43°   Wind: 7mph
Humidity: 100%   Direction: 320°NW
Pressure: 30.21"   Gusts: NA
Location:  37.17°N, 82.63°W
Report Text: KLNP 222155Z AUTO 32006KT 3SM -DZ OVC006 06/06 A3021 RMK AO2
Loading
Personal Weather Stations






























Interactive Weather Map
Tropical Storm Tracking
New forecast layout! Learn more

10-Day Weather Forecast

Advertisements
Track Severe Weather on mobile